Time;durP1;ratioP1;P1;durP2;ratioP2;P2;SDS_P1;SDS_P2;PMS_P1;PMS_P2;Temp;Humidity;BMP_temperature;BMP_pressure;BME280_temperature;BME280_humidity;BME280_pressure;Samples;Min_cycle;Max_cycle;Signal;HPM_P1;HPM_P2
2023/09/23 00:00:56;;;;;;;4.00;1.58;;;;;;;23.21;100.00;100274.28;5009375;28;20060;-45
2023/09/23 00:03:24;;;;;;;4.20;1.33;;;;;;;23.26;100.00;100276.38;5009362;28;20100;-44
2023/09/23 00:05:51;;;;;;;2.40;1.27;;;;;;;23.27;100.00;100286.41;5015404;28;20058;-44
2023/09/23 00:08:18;;;;;;;3.10;1.10;;;;;;;23.25;100.00;100286.91;5012219;28;20076;-44
2023/09/23 00:10:45;;;;;;;1.83;1.00;;;;;;;23.27;100.00;100292.88;5014530;28;20057;-45
2023/09/23 00:13:12;;;;;;;2.22;1.20;;;;;;;23.29;100.00;100289.50;5010030;28;20073;-47
2023/09/23 00:15:42;;;;;;;3.35;1.48;;;;;;;23.27;100.00;100292.06;5016380;28;20045;-44
2023/09/23 00:18:09;;;;;;;2.60;1.42;;;;;;;23.28;100.00;100293.63;5019045;28;20052;-44
2023/09/23 00:20:38;;;;;;;2.22;1.23;;;;;;;23.26;100.00;100287.72;5011140;28;20064;-46
2023/09/23 00:23:06;;;;;;;2.90;1.10;;;;;;;23.23;100.00;100297.25;5009115;28;20054;-45
2023/09/23 00:25:36;;;;;;;2.42;1.50;;;;;;;23.26;100.00;100302.63;5008437;28;20778;-49
2023/09/23 00:28:07;;;;;;;2.42;1.30;;;;;;;23.26;100.00;100304.72;5018089;28;20050;-43
2023/09/23 00:30:35;;;;;;;1.92;1.10;;;;;;;23.22;100.00;100307.78;5022842;28;20061;-43
2023/09/23 00:33:02;;;;;;;1.73;1.20;;;;;;;23.22;100.00;100312.72;5009080;28;20076;-43
2023/09/23 00:35:29;;;;;;;1.65;1.17;;;;;;;23.22;100.00;100321.22;5009029;28;20041;-46
2023/09/23 00:37:57;;;;;;;2.33;1.40;;;;;;;23.22;100.00;100326.91;5019341;28;20125;-43
2023/09/23 00:40:27;;;;;;;4.65;1.33;;;;;;;23.26;100.00;100324.56;5013912;28;20050;-44
2023/09/23 00:42:57;;;;;;;3.75;1.20;;;;;;;23.20;100.00;100335.91;5014704;28;20057;-49
2023/09/23 00:45:29;;;;;;;2.08;1.25;;;;;;;23.20;100.00;100333.06;5010896;28;20092;-44
2023/09/23 00:47:56;;;;;;;2.72;1.17;;;;;;;23.20;100.00;100337.97;5022302;28;20050;-46
2023/09/23 00:50:24;;;;;;;1.92;1.08;;;;;;;23.21;100.00;100340.28;5012746;28;20431;-46
2023/09/23 00:52:51;;;;;;;3.08;1.05;;;;;;;23.23;100.00;100343.41;5015836;28;20045;-43
2023/09/23 00:55:20;;;;;;;2.20;1.10;;;;;;;23.24;100.00;100352.66;5020230;28;20488;-45
2023/09/23 00:57:52;;;;;;;2.03;1.23;;;;;;;23.21;100.00;100351.63;5016793;28;20711;-42
2023/09/23 01:00:29;;;;;;;3.03;1.10;;;;;;;23.32;100.00;100362.22;5016097;28;20127;-43
2023/09/23 01:02:57;;;;;;;4.50;1.10;;;;;;;23.20;100.00;100357.81;5014982;28;20056;-44
2023/09/23 01:05:28;;;;;;;1.67;1.10;;;;;;;23.24;100.00;100359.13;5012161;28;20096;-46
2023/09/23 01:08:17;;;;;;;3.42;1.27;;;;;;;23.21;100.00;100368.66;5015228;28;20153;-44
2023/09/23 01:10:43;;;;;;;1.77;1.10;;;;;;;23.23;100.00;100353.97;5012249;28;20213;-46
2023/09/23 01:13:11;;;;;;;4.72;1.40;;;;;;;23.25;100.00;100369.16;5012548;28;20614;-44
2023/09/23 01:15:40;;;;;;;3.13;1.15;;;;;;;23.21;100.00;100360.13;5021866;28;20048;-43
2023/09/23 01:18:08;;;;;;;2.58;1.25;;;;;;;23.19;100.00;100365.53;5020918;28;20053;-43
2023/09/23 01:20:37;;;;;;;2.65;1.05;;;;;;;23.19;100.00;100376.13;5015441;28;20511;-44
2023/09/23 01:23:05;;;;;;;2.55;1.20;;;;;;;23.21;100.00;100376.38;5012249;28;20062;-43
2023/09/23 01:25:35;;;;;;;2.72;0.93;;;;;;;23.21;100.00;100376.38;5017164;28;20050;-45
2023/09/23 01:28:11;;;;;;;1.55;1.10;;;;;;;23.19;100.00;100388.22;5019236;28;20104;-45
2023/09/23 01:30:40;;;;;;;5.93;1.23;;;;;;;23.16;100.00;100385.66;5012338;28;20053;-44
2023/09/23 01:33:12;;;;;;;4.35;1.48;;;;;;;23.17;100.00;100384.34;5011992;28;20049;-45
2023/09/23 01:35:39;;;;;;;2.33;1.13;;;;;;;23.15;100.00;100379.19;5011772;28;20057;-45
2023/09/23 01:38:06;;;;;;;1.25;1.10;;;;;;;23.16;100.00;100385.66;5010708;28;20096;-44
2023/09/23 01:40:35;;;;;;;1.95;1.30;;;;;;;23.13;100.00;100395.19;5014591;28;20053;-44
2023/09/23 01:43:03;;;;;;;2.42;1.50;;;;;;;23.17;100.00;100392.88;5013902;28;20128;-44
2023/09/23 01:45:31;;;;;;;1.95;1.13;;;;;;;23.15;100.00;100399.03;5022328;28;20041;-43
2023/09/23 01:47:58;;;;;;;2.08;1.02;;;;;;;23.14;100.00;100400.34;5015232;28;20513;-44
2023/09/23 01:50:26;;;;;;;3.10;1.13;;;;;;;23.13;100.00;100404.47;5019898;28;20156;-46
2023/09/23 01:52:54;;;;;;;1.73;1.02;;;;;;;23.15;100.00;100409.63;5013562;28;20100;-44
2023/09/23 01:55:20;;;;;;;1.25;1.08;;;;;;;23.14;100.00;100408.06;5018962;28;20082;-45
2023/09/23 01:57:50;;;;;;;3.13;1.30;;;;;;;23.13;100.00;100410.16;5014038;28;20103;-45
2023/09/23 02:00:25;;;;;;;2.70;1.38;;;;;;;23.13;100.00;100415.03;5011476;28;20714;-44
2023/09/23 02:02:55;;;;;;;3.58;1.30;;;;;;;23.13;100.00;100418.66;5011558;28;20081;-46
2023/09/23 02:05:24;;;;;;;2.08;1.15;;;;;;;23.11;100.00;100426.88;5011170;28;20055;-44
2023/09/23 02:07:50;;;;;;;1.42;1.05;;;;;;;23.12;100.00;100434.09;5014552;28;20053;-44
2023/09/23 02:10:17;;;;;;;2.15;1.13;;;;;;;23.10;100.00;100439.53;5011491;28;20124;-47
2023/09/23 02:12:44;;;;;;;1.77;1.13;;;;;;;23.10;100.00;100438.72;5011528;28;20136;-46
2023/09/23 02:15:15;;;;;;;1.45;1.00;;;;;;;23.10;100.00;100435.91;5010566;28;20046;-43
2023/09/23 02:17:46;;;;;;;2.72;1.58;;;;;;;23.12;100.00;100442.59;5011195;28;20042;-44
2023/09/23 02:20:22;;;;;;;2.85;1.15;;;;;;;23.10;100.00;100452.91;5011229;28;20042;-46
2023/09/23 02:22:53;;;;;;;3.00;1.20;;;;;;;23.13;100.00;100452.69;5011306;28;20050;-44
2023/09/23 02:25:25;;;;;;;1.75;1.20;;;;;;;23.14;100.00;100453.44;5011122;28;20053;-46
2023/09/23 02:27:53;;;;;;;5.10;1.25;;;;;;;23.13;100.00;100454.72;5009879;28;20522;-45
2023/09/23 02:30:19;;;;;;;2.65;1.25;;;;;;;23.11;100.00;100452.41;5014431;28;20084;-46
2023/09/23 02:32:46;;;;;;;2.50;1.20;;;;;;;23.12;100.00;100456.03;5011140;28;20507;-43
2023/09/23 02:35:15;;;;;;;1.90;0.95;;;;;;;23.12;100.00;100456.03;5011595;28;20053;-44
2023/09/23 02:37:46;;;;;;;1.75;0.90;;;;;;;23.11;100.00;100458.06;5015399;28;20096;-43
2023/09/23 02:40:14;;;;;;;1.48;1.02;;;;;;;23.08;100.00;100461.16;5012421;28;20127;-44
2023/09/23 02:42:42;;;;;;;5.03;1.33;;;;;;;23.10;100.00;100469.91;5018612;28;20053;-43
2023/09/23 02:45:10;;;;;;;3.55;1.65;;;;;;;23.11;100.00;100472.25;5011330;28;20050;-42
2023/09/23 02:47:38;;;;;;;1.95;1.20;;;;;;;23.10;100.00;100473.53;5020194;28;20049;-45
2023/09/23 02:50:09;;;;;;;1.30;0.88;;;;;;;23.09;100.00;100477.63;5010570;28;20495;-44
2023/09/23 02:52:40;;;;;;;2.38;1.10;;;;;;;23.10;100.00;100482.03;5010644;28;20508;-43
2023/09/23 02:55:12;;;;;;;1.27;1.00;;;;;;;23.07;100.00;100477.41;5010084;28;20157;-46
2023/09/23 02:57:40;;;;;;;2.13;1.35;;;;;;;23.09;100.00;100480.47;5009955;28;20050;-44
2023/09/23 03:00:16;;;;;;;2.70;0.90;;;;;;;23.08;100.00;100469.66;5011124;28;20700;-44
2023/09/23 03:02:45;;;;;;;1.55;1.15;;;;;;;23.07;100.00;100476.59;5010701;28;20046;-44
2023/09/23 03:05:16;;;;;;;1.83;1.00;;;;;;;23.06;100.00;100473.00;5014851;28;20038;-46
2023/09/23 03:07:50;;;;;;;1.33;1.15;;;;;;;23.08;100.00;100484.59;5022240;28;20072;-46
2023/09/23 03:10:29;;;;;;;1.92;1.20;;;;;;;23.05;100.00;100484.88;5009972;28;20049;-43
2023/09/23 03:13:05;;;;;;;1.95;1.25;;;;;;;23.07;100.00;100483.06;5015400;28;20041;-43
2023/09/23 03:15:49;;;;;;;3.53;1.40;;;;;;;23.07;100.00;100482.28;5014046;28;20049;-43
2023/09/23 03:18:27;;;;;;;1.50;1.00;;;;;;;23.05;100.00;100479.19;5018253;28;20397;-42
2023/09/23 03:20:55;;;;;;;3.22;1.30;;;;;;;23.07;100.00;100482.28;5010044;28;20054;-43
2023/09/23 03:23:23;;;;;;;1.58;1.10;;;;;;;23.05;100.00;100479.94;5018575;28;20042;-43
2023/09/23 03:25:51;;;;;;;3.05;1.08;;;;;;;23.07;100.00;100485.91;5026149;28;20130;-46
2023/09/23 03:28:17;;;;;;;3.53;1.30;;;;;;;23.04;100.00;100492.59;5012765;28;20052;-44
2023/09/23 03:30:47;;;;;;;3.17;1.02;;;;;;;23.05;100.00;100499.03;5017088;28;20522;-45
2023/09/23 03:33:18;;;;;;;2.85;1.08;;;;;;;23.04;100.00;100497.47;5010426;28;20055;-44
2023/09/23 03:35:46;;;;;;;3.65;1.60;;;;;;;23.06;100.00;100497.75;5015906;28;20077;-43
2023/09/23 03:38:13;;;;;;;2.78;1.25;;;;;;;23.03;100.00;100502.38;5010085;28;20037;-45
2023/09/23 03:40:39;;;;;;;2.75;1.42;;;;;;;23.07;100.00;100507.78;5010038;28;20061;-46
2023/09/23 03:43:06;;;;;;;1.50;1.15;;;;;;;23.06;100.00;100497.75;5013029;28;20634;-44
2023/09/23 03:45:34;;;;;;;2.50;1.10;;;;;;;23.05;100.00;100496.19;5013660;28;20764;-43
2023/09/23 03:48:01;;;;;;;1.80;1.20;;;;;;;23.03;100.00;100493.88;5013355;28;20069;-42
2023/09/23 03:50:29;;;;;;;1.55;1.08;;;;;;;23.04;100.00;100497.47;5009821;28;20053;-44
2023/09/23 03:52:56;;;;;;;2.22;1.10;;;;;;;23.03;100.00;100496.72;5011764;28;20577;-44
2023/09/23 03:55:24;;;;;;;1.42;1.27;;;;;;;23.04;100.00;100497.47;5014560;28;20653;-43
2023/09/23 03:57:50;;;;;;;2.30;1.20;;;;;;;23.01;100.00;100504.94;5009306;28;20129;-48
2023/09/23 04:00:17;;;;;;;3.97;1.20;;;;;;;23.01;100.00;100504.94;5009545;28;20053;-42
2023/09/23 04:02:50;;;;;;;5.85;1.02;;;;;;;23.01;100.00;100504.16;5011092;28;20131;-44
2023/09/23 04:05:16;;;;;;;1.23;0.90;;;;;;;23.02;100.00;100508.56;5008944;28;20045;-45
2023/09/23 04:07:49;;;;;;;5.07;1.52;;;;;;;23.01;100.00;100513.44;5009172;28;20500;-45
2023/09/23 04:10:23;;;;;;;1.90;1.05;;;;;;;23.00;100.00;100516.78;5009479;28;20516;-45
2023/09/23 04:12:51;;;;;;;1.30;1.00;;;;;;;23.01;100.00;100521.16;5010572;28;20099;-45
2023/09/23 04:15:21;;;;;;;1.40;0.98;;;;;;;23.00;100.00;100513.94;5018439;28;20659;-47
2023/09/23 04:17:48;;;;;;;2.22;1.08;;;;;;;22.98;100.00;100522.97;5009159;28;20046;-43
2023/09/23 04:20:15;;;;;;;1.27;0.95;;;;;;;22.99;100.00;100529.41;5008941;28;20512;-47
2023/09/23 04:22:42;;;;;;;1.88;1.10;;;;;;;22.98;100.00;100522.97;5008383;28;20769;-43
2023/09/23 04:25:10;;;;;;;1.85;1.02;;;;;;;23.00;100.00;100530.97;5016971;28;20046;-44
2023/09/23 04:27:37;;;;;;;1.00;0.90;;;;;;;23.00;100.00;100539.47;5009824;28;20128;-46
2023/09/23 04:30:15;;;;;;;2.13;1.23;;;;;;;22.99;100.00;100540.75;5008930;28;20104;-43
2023/09/23 04:32:42;;;;;;;1.80;1.00;;;;;;;22.98;100.00;100539.97;5007642;28;20054;-43
2023/09/23 04:35:11;;;;;;;2.17;1.00;;;;;;;22.98;100.00;100536.38;5008917;28;20065;-44
2023/09/23 04:37:39;;;;;;;1.27;1.00;;;;;;;23.00;100.00;100542.31;5010260;28;20052;-44
2023/09/23 04:40:11;;;;;;;2.72;1.08;;;;;;;22.99;100.00;100544.38;5009924;28;20071;-43
2023/09/23 04:42:39;;;;;;;2.05;0.98;;;;;;;22.99;100.00;100538.72;5014402;28;20057;-45
2023/09/23 04:45:07;;;;;;;1.83;1.13;;;;;;;22.98;100.00;100542.03;5009938;28;20058;-46
2023/09/23 04:47:37;;;;;;;1.20;0.70;;;;;;;22.98;100.00;100545.63;5018462;28;20077;-44
2023/09/23 04:50:07;;;;;;;1.60;0.75;;;;;;;22.98;100.00;100554.16;5019065;28;20057;-44
2023/09/23 04:52:34;;;;;;;3.58;1.10;;;;;;;23.00;100.00;100550.81;5009349;28;20053;-46
2023/09/23 04:55:02;;;;;;;1.08;0.90;;;;;;;22.99;100.00;100558.56;5016462;28;20514;-43
2023/09/23 04:57:29;;;;;;;3.28;1.10;;;;;;;23.01;100.00;100555.19;5012237;28;20099;-44
2023/09/23 04:59:57;;;;;;;2.45;1.27;;;;;;;22.99;100.00;100560.59;5010506;28;20064;-44
2023/09/23 05:02:24;;;;;;;1.58;0.93;;;;;;;22.99;100.00;100566.28;5009064;28;20081;-47
2023/09/23 05:04:53;;;;;;;1.63;0.90;;;;;;;22.99;100.00;100571.94;5012269;28;20131;-46
2023/09/23 05:07:21;;;;;;;2.65;0.98;;;;;;;22.97;100.00;100578.13;5013902;28;20053;-44
2023/09/23 05:09:48;;;;;;;1.52;0.85;;;;;;;22.98;100.00;100582.50;5012794;28;20069;-44
2023/09/23 05:12:15;;;;;;;2.92;0.85;;;;;;;22.99;100.00;100577.59;5008720;28;20069;-46
2023/09/23 05:14:42;;;;;;;1.60;1.00;;;;;;;22.97;100.00;100586.63;5010710;28;20069;-41
2023/09/23 05:17:13;;;;;;;2.00;1.10;;;;;;;23.00;100.00;100588.44;5018877;28;21093;-44
2023/09/23 05:19:47;;;;;;;1.20;0.90;;;;;;;22.98;100.00;100598.75;5012587;28;20575;-46
2023/09/23 05:22:13;;;;;;;0.90;0.80;;;;;;;22.99;100.00;100597.44;5008733;28;20053;-44
2023/09/23 05:24:41;;;;;;;2.45;0.80;;;;;;;22.98;100.00;100604.41;5008110;28;20136;-46
2023/09/23 05:27:08;;;;;;;4.68;0.88;;;;;;;22.97;100.00;100608.50;5009728;28;20050;-43
2023/09/23 05:29:35;;;;;;;1.35;1.13;;;;;;;22.97;100.00;100612.13;5019876;28;20099;-46
2023/09/23 05:32:02;;;;;;;1.35;0.77;;;;;;;22.97;100.00;100619.84;5017594;28;20046;-43
2023/09/23 05:34:28;;;;;;;1.42;0.70;;;;;;;22.97;100.00;100628.34;5013195;28;20077;-44
2023/09/23 05:36:56;;;;;;;1.58;0.70;;;;;;;22.98;100.00;100635.59;5011288;28;20085;-44
2023/09/23 05:39:23;;;;;;;2.05;0.98;;;;;;;22.96;100.00;100635.28;5019035;28;20125;-44
2023/09/23 05:41:51;;;;;;;1.02;0.90;;;;;;;22.95;100.00;100653.59;5016338;28;20132;-43
2023/09/23 05:44:18;;;;;;;0.82;0.77;;;;;;;22.97;100.00;100648.19;5015073;28;20503;-43
2023/09/23 05:46:48;;;;;;;1.83;0.93;;;;;;;22.94;100.00;100658.47;5027333;28;20063;-44
2023/09/23 05:49:15;;;;;;;1.25;0.80;;;;;;;22.95;100.00;100657.19;5015091;28;20713;-44
2023/09/23 05:51:43;;;;;;;1.20;0.85;;;;;;;22.93;100.00;100668.25;5012183;28;20111;-44
2023/09/23 05:54:09;;;;;;;3.55;0.70;;;;;;;22.95;100.00;100673.44;5010803;28;20053;-48
2023/09/23 05:56:36;;;;;;;1.77;1.33;;;;;;;22.95;100.00;100679.84;5017684;28;20045;-44
2023/09/23 05:59:03;;;;;;;1.10;0.70;;;;;;;22.95;100.00;100682.69;5013499;28;20089;-45
2023/09/23 06:01:29;;;;;;;1.75;1.08;;;;;;;22.96;100.00;100678.63;5011580;28;20046;-47
2023/09/23 06:03:56;;;;;;;1.02;0.90;;;;;;;22.97;100.00;100683.00;5014372;28;20073;-44
2023/09/23 06:06:23;;;;;;;1.67;0.93;;;;;;;22.95;100.00;100694.03;5010854;28;20046;-46
2023/09/23 06:08:50;;;;;;;1.45;0.73;;;;;;;22.96;100.00;100691.97;5010637;28;20133;-47
2023/09/23 06:11:17;;;;;;;2.05;0.85;;;;;;;22.95;100.00;100699.69;5011891;28;20151;-44
2023/09/23 06:13:44;;;;;;;1.40;1.00;;;;;;;22.96;100.00;100700.50;5010776;28;20050;-44
2023/09/23 06:16:11;;;;;;;2.13;1.20;;;;;;;22.98;100.00;100707.22;5020098;28;20586;-43
2023/09/23 06:18:37;;;;;;;1.75;1.00;;;;;;;22.98;100.00;100709.31;5015358;28;20132;-43
2023/09/23 06:21:06;;;;;;;3.60;0.77;;;;;;;23.02;100.00;100713.44;5010666;28;20081;-45
2023/09/23 06:23:33;;;;;;;7.72;1.20;;;;;;;22.99;100.00;100705.97;5016407;28;20041;-43
2023/09/23 06:26:02;;;;;;;4.47;1.10;;;;;;;22.98;100.00;100723.47;5012203;28;20081;-47
2023/09/23 06:28:33;;;;;;;2.65;0.68;;;;;;;22.98;100.00;100723.47;5021774;28;20042;-44
2023/09/23 06:30:59;;;;;;;1.38;1.00;;;;;;;22.97;100.00;100734.03;5030731;28;20081;-45
2023/09/23 06:33:26;;;;;;;1.80;1.10;;;;;;;22.95;100.00;100730.13;5030590;28;20083;-43
2023/09/23 06:35:52;;;;;;;0.98;0.57;;;;;;;22.96;100.00;100735.31;5030258;28;20056;-46
2023/09/23 06:38:19;;;;;;;1.33;0.77;;;;;;;22.95;100.00;100738.63;5027500;28;20120;-44
2023/09/23 06:40:46;;;;;;;2.65;1.27;;;;;;;22.91;100.00;100741.69;5021344;28;20053;-42
2023/09/23 06:43:12;;;;;;;1.52;0.90;;;;;;;22.94;100.00;100749.19;5025553;28;20057;-43
2023/09/23 06:45:39;;;;;;;2.00;1.00;;;;;;;22.94;100.00;100754.06;5028532;28;20059;-45
2023/09/23 06:48:05;;;;;;;2.03;0.85;;;;;;;22.94;100.00;100766.19;5021398;28;20058;-43
2023/09/23 06:50:32;;;;;;;8.20;0.75;;;;;;;22.96;100.00;100769.34;5026629;28;20045;-45
2023/09/23 06:53:00;;;;;;;1.60;1.00;;;;;;;22.98;100.00;100769.59;5028128;28;20049;-43
2023/09/23 06:55:27;;;;;;;1.75;0.77;;;;;;;22.99;100.00;100781.72;5022585;28;20051;-48
2023/09/23 06:57:53;;;;;;;1.13;0.90;;;;;;;22.99;100.00;100779.69;5018543;28;20172;-44
2023/09/23 07:00:21;;;;;;;0.98;0.70;;;;;;;23.00;100.00;100786.91;5010656;28;20141;-44
2023/09/23 07:02:47;;;;;;;1.65;0.90;;;;;;;23.01;100.00;100796.16;5015239;28;20046;-43
2023/09/23 07:05:14;;;;;;;8.60;0.85;;;;;;;23.01;100.00;100799.00;5009774;28;20041;-47
2023/09/23 07:07:41;;;;;;;3.33;0.73;;;;;;;23.03;100.00;100805.75;5012160;28;20132;-43
2023/09/23 07:10:09;;;;;;;2.50;0.82;;;;;;;23.02;100.00;100811.91;5021995;28;20057;-44
2023/09/23 07:12:35;;;;;;;3.92;0.77;;;;;;;23.00;100.00;100812.41;5010619;28;20088;-42
2023/09/23 07:15:02;;;;;;;3.78;1.10;;;;;;;23.00;100.00;100809.59;5011989;28;20050;-45
2023/09/23 07:17:29;;;;;;;3.33;1.30;;;;;;;23.01;100.00;100816.81;5019958;28;20141;-44
2023/09/23 07:19:55;;;;;;;3.22;0.80;;;;;;;23.02;100.00;100814.75;5009884;28;20145;-43
2023/09/23 07:22:22;;;;;;;1.73;0.93;;;;;;;22.93;100.00;100818.50;5018767;28;20128;-45
2023/09/23 07:24:48;;;;;;;5.38;1.50;;;;;;;22.90;100.00;100822.34;5011602;28;20056;-44
2023/09/23 07:27:15;;;;;;;6.68;1.60;;;;;;;22.85;100.00;100817.38;5017376;28;20058;-45
2023/09/23 07:29:41;;;;;;;4.15;1.58;;;;;;;22.82;100.00;100817.63;5009819;28;20902;-41
2023/09/23 07:32:08;;;;;;;4.75;1.52;;;;;;;22.83;100.00;100825.63;5012949;28;20077;-45
2023/09/23 07:34:34;;;;;;;6.35;1.60;;;;;;;22.83;100.00;100828.44;5010706;28;20054;-43
2023/09/23 07:37:01;;;;;;;7.50;1.70;;;;;;;22.81;100.00;100830.22;5016520;28;20046;-43
2023/09/23 07:39:28;;;;;;;7.85;1.98;;;;;;;22.82;100.00;100843.13;5015100;28;20434;-45
2023/09/23 07:41:55;;;;;;;6.05;2.08;;;;;;;22.81;100.00;100844.41;5013044;28;20135;-44
2023/09/23 07:44:21;;;;;;;4.63;1.98;;;;;;;22.70;100.00;100849.94;5013490;28;20076;-43
2023/09/23 07:46:48;;;;;;;4.47;2.40;;;;;;;22.62;100.00;100851.66;5022619;28;20079;-43
2023/09/23 07:49:14;;;;;;;11.23;2.83;;;;;;;22.56;100.00;100854.44;5009668;28;20096;-48
2023/09/23 07:51:41;;;;;;;6.80;2.72;;;;;;;22.58;100.00;100856.75;5012646;28;20136;-43
2023/09/23 07:54:08;;;;;;;17.50;3.60;;;;;;;22.51;100.00;100872.13;5013639;28;20045;-45
2023/09/23 07:56:34;;;;;;;11.35;3.05;;;;;;;22.56;100.00;100871.44;5010474;28;20081;-49
2023/09/23 07:59:01;;;;;;;13.38;4.15;;;;;;;22.44;100.00;100866.88;5009488;28;20132;-45
2023/09/23 08:01:29;;;;;;;16.10;4.45;;;;;;;22.49;100.00;100877.53;5022575;28;20081;-43
2023/09/23 08:03:55;;;;;;;9.98;3.30;;;;;;;22.41;100.00;100872.78;5020262;28;20053;-43
2023/09/23 08:06:22;;;;;;;7.93;3.58;;;;;;;22.40;100.00;100882.53;5024843;28;20085;-43
2023/09/23 08:08:48;;;;;;;10.95;4.28;;;;;;;22.34;100.00;100879.63;5021184;28;20061;-44
2023/09/23 08:11:15;;;;;;;7.47;3.58;;;;;;;22.39;100.00;100884.59;5027102;28;20053;-45
2023/09/23 08:13:42;;;;;;;8.25;3.55;;;;;;;22.36;100.00;100887.63;5000954;28;20131;-43
2023/09/23 08:16:08;;;;;;;12.73;4.03;;;;;;;22.28;100.00;100881.59;5014976;28;20077;-42
2023/09/23 08:18:35;;;;;;;11.40;4.30;;;;;;;22.27;100.00;100887.75;5008293;28;20046;-44
2023/09/23 08:21:02;;;;;;;8.85;3.85;;;;;;;22.27;100.00;100894.19;5011510;28;20052;-43
2023/09/23 08:23:28;;;;;;;8.50;3.78;;;;;;;22.27;100.00;100896.25;5007875;28;20046;-43
2023/09/23 08:25:56;;;;;;;11.98;3.78;;;;;;;22.23;100.00;100904.16;5018300;28;20090;-44
2023/09/23 08:28:23;;;;;;;10.95;4.15;;;;;;;22.23;100.00;100913.44;5012013;28;20527;-43
2023/09/23 08:30:51;;;;;;;10.52;4.28;;;;;;;22.18;100.00;100900.75;5011376;28;20564;-43
2023/09/23 08:33:17;;;;;;;10.10;4.03;;;;;;;22.18;100.00;100917.75;5015254;28;20504;-45
2023/09/23 08:35:48;;;;;;;11.93;3.50;;;;;;;22.09;100.00;100912.22;5011334;28;20062;-43
2023/09/23 08:38:15;;;;;;;10.27;3.72;;;;;;;22.10;100.00;100919.44;5014943;28;20052;-43
2023/09/23 08:40:44;;;;;;;10.55;3.25;;;;;;;22.12;100.00;100924.59;5012960;28;20085;-44
2023/09/23 08:43:10;;;;;;;10.63;3.53;;;;;;;22.19;100.00;100921.38;5008954;28;20505;-44
2023/09/23 08:45:44;;;;;;;5.50;3.22;;;;;;;22.18;100.00;100919.81;5014968;28;20054;-43
2023/09/23 08:48:13;;;;;;;7.22;3.17;;;;;;;22.18;100.00;100917.75;5009411;28;20103;-45
2023/09/23 08:50:51;;;;;;;6.32;3.25;;;;;;;22.25;100.00;100924.28;5008965;28;20810;-44
2023/09/23 08:53:19;;;;;;;7.97;3.08;;;;;;;22.32;100.00;100926.72;5018915;28;20050;-44
2023/09/23 08:55:48;;;;;;;14.45;3.85;;;;;;;22.38;100.00;100928.38;5012824;28;20050;-43
2023/09/23 08:58:15;;;;;;;9.10;3.42;;;;;;;22.46;100.00;100925.88;5007870;28;20112;-44
2023/09/23 09:00:46;;;;;;;8.20;3.55;;;;;;;22.51;100.00;100939.34;5010098;28;20081;-43
2023/09/23 09:03:13;;;;;;;10.48;3.20;;;;;;;22.48;100.00;100940.34;5008804;28;21467;-44
2023/09/23 09:05:41;;;;;;;12.50;3.13;;;;;;;22.48;100.00;100934.66;5015600;28;20061;-46
2023/09/23 09:08:08;;;;;;;8.77;3.15;;;;;;;22.57;100.00;100943.00;5012018;28;20045;-45
2023/09/23 09:10:35;;;;;;;11.02;3.38;;;;;;;22.60;100.00;100939.19;5008443;28;20054;-42
2023/09/23 09:13:06;;;;;;;13.52;3.50;;;;;;;22.56;100.00;100941.47;5020677;28;20045;-43
2023/09/23 09:15:34;;;;;;;10.05;3.22;;;;;;;22.62;100.00;100950.81;5024232;28;20049;-44
2023/09/23 09:18:04;;;;;;;11.73;3.22;;;;;;;22.64;100.00;100959.63;5012713;28;20045;-45
2023/09/23 09:20:31;;;;;;;10.30;3.10;;;;;;;22.58;100.00;100951.03;5016346;28;20401;-45
2023/09/23 09:22:58;;;;;;;11.18;3.75;;;;;;;22.49;100.00;100950.38;5020562;28;20076;-46
2023/09/23 09:25:25;;;;;;;15.65;3.40;;;;;;;22.48;100.00;100954.50;5015368;28;20138;-47
2023/09/23 09:27:52;;;;;;;13.65;3.72;;;;;;;22.43;100.00;100961.66;5013855;28;20083;-48
2023/09/23 09:30:19;;;;;;;12.95;3.42;;;;;;;22.38;100.00;100959.53;5012507;28;20045;-44
2023/09/23 09:32:46;;;;;;;7.22;3.15;;;;;;;22.55;100.00;100968.25;5011803;28;20057;-43
2023/09/23 09:35:15;;;;;;;12.40;3.53;;;;;;;22.46;100.00;100957.84;5015610;28;20053;-45
2023/09/23 09:37:47;;;;;;;9.20;3.08;;;;;;;22.42;100.00;100967.81;5020112;28;20526;-45
2023/09/23 09:40:23;;;;;;;9.20;2.90;;;;;;;22.40;100.00;100976.78;5013192;28;20065;-45
2023/09/23 09:42:54;;;;;;;8.10;2.85;;;;;;;22.36;100.00;100979.06;5025842;28;20046;-46
2023/09/23 09:45:22;;;;;;;6.63;2.40;;;;;;;22.38;100.00;100978.56;5016867;28;20096;-42
2023/09/23 09:47:55;;;;;;;10.93;3.13;;;;;;;22.37;100.00;100974.19;5015681;28;20057;-43
2023/09/23 09:50:23;;;;;;;8.68;2.88;;;;;;;22.16;100.00;100984.63;5022563;28;20084;-45
2023/09/23 09:52:49;;;;;;;8.77;2.88;;;;;;;22.17;100.00;100979.75;5016136;28;20172;-41
2023/09/23 09:55:19;;;;;;;7.68;2.95;;;;;;;22.11;100.00;100985.34;5016992;28;20074;-44
2023/09/23 09:57:47;;;;;;;9.80;2.78;;;;;;;22.06;100.00;101000.97;5010988;28;20054;-43
2023/09/23 10:00:30;;;;;;;5.72;2.45;;;;;;;22.06;100.00;100983.97;5022352;28;20077;-44
2023/09/23 10:03:05;;;;;;;7.00;2.80;;;;;;;22.05;100.00;100984.47;5015817;28;20053;-46
2023/09/23 10:05:40;;;;;;;;;;;;;;;21.99;100.00;100995.72;5012979;28;20084;-42
2023/09/23 10:08:15;;;;;;;6.80;2.90;;;;;;;22.01;100.00;100987.50;5011775;28;19925;-43
2023/09/23 10:10:49;;;;;;;6.82;2.20;;;;;;;22.02;100.00;101010.94;5018308;28;20398;-42
2023/09/23 10:13:18;;;;;;;9.48;2.50;;;;;;;22.00;100.00;100996.47;5017763;28;20067;-44
2023/09/23 10:15:45;;;;;;;6.97;1.95;;;;;;;21.95;100.00;100989.47;5029507;28;20048;-45
2023/09/23 10:18:17;;;;;;;10.18;2.35;;;;;;;21.87;100.00;100993.94;5013164;28;20077;-42
2023/09/23 10:20:50;;;;;;;8.65;2.28;;;;;;;21.88;100.00;100995.50;5010359;28;20397;-47
2023/09/23 10:23:19;;;;;;;6.55;1.98;;;;;;;22.00;100.00;101005.75;5016980;28;20179;-43
2023/09/23 10:25:50;;;;;;;7.88;2.05;;;;;;;22.08;100.00;101004.06;5023413;28;20088;-43
2023/09/23 10:28:35;;;;;;;5.80;1.98;;;;;;;22.25;100.00;101003.56;5019341;28;20401;-43
2023/09/23 10:31:04;;;;;;;11.30;1.90;;;;;;;22.32;100.00;101006.03;5011443;28;20133;-42
2023/09/23 10:33:32;;;;;;;12.35;2.28;;;;;;;22.26;100.00;101008.75;5017270;28;20064;-43
2023/09/23 10:35:59;;;;;;;11.50;2.90;;;;;;;22.22;100.00;101010.22;5025940;28;20065;-43
2023/09/23 10:38:31;;;;;;;24.00;3.72;;;;;;;22.19;100.00;101011.97;5028327;28;20167;-43
2023/09/23 10:40:58;;;;;;;11.35;2.00;;;;;;;22.21;100.00;101017.16;5019119;28;20056;-43
2023/09/23 10:43:24;;;;;;;7.10;2.08;;;;;;;22.16;100.00;101015.78;5028087;28;20049;-43
2023/09/23 10:45:53;;;;;;;8.77;1.92;;;;;;;22.29;100.00;101019.09;5025124;28;20454;-44
2023/09/23 10:48:20;;;;;;;9.70;2.03;;;;;;;22.36;100.00;101017.91;5010416;28;20053;-44
2023/09/23 10:50:48;;;;;;;8.73;2.13;;;;;;;22.37;100.00;101014.59;5011166;28;20037;-46
2023/09/23 10:53:15;;;;;;;6.07;1.75;;;;;;;22.39;100.00;101012.06;5016125;28;20046;-42
2023/09/23 10:55:42;;;;;;;11.15;2.38;;;;;;;22.42;100.00;101021.63;5020007;28;20046;-43
2023/09/23 10:58:09;;;;;;;13.32;2.80;;;;;;;22.52;100.00;101028.72;5013594;28;20426;-43
2023/09/23 11:00:37;;;;;;;11.23;2.67;;;;;;;22.43;100.00;101028.84;5012336;28;20045;-43
2023/09/23 11:03:09;;;;;;;16.70;3.00;;;;;;;22.41;100.00;101029.34;5010373;28;20126;-44
2023/09/23 11:05:37;;;;;;;12.88;2.70;;;;;;;22.40;100.00;101041.16;5022586;28;20507;-44
2023/09/23 11:08:11;;;;;;;12.60;2.45;;;;;;;22.48;100.00;101043.09;5022191;28;20052;-43
2023/09/23 11:10:40;;;;;;;16.58;2.58;;;;;;;22.60;100.00;101052.53;5016305;28;20052;-46
2023/09/23 11:13:11;;;;;;;17.50;3.38;;;;;;;22.57;100.00;101051.47;5015442;28;20412;-45
2023/09/23 11:15:43;;;;;;;12.18;2.40;;;;;;;22.57;100.00;101054.31;5015762;28;20045;-43
2023/09/23 11:18:19;;;;;;;8.40;1.90;;;;;;;22.63;100.00;101063.69;5020721;28;20164;-43
2023/09/23 11:20:46;;;;;;;5.90;1.80;;;;;;;22.70;100.00;101065.31;5014827;28;20050;-43
2023/09/23 11:23:14;;;;;;;8.07;2.10;;;;;;;22.66;100.00;101061.91;5013278;28;20496;-45